createdAt,value
2023-05-22T00:00:12.884Z,94848.00
2023-05-22T00:01:12.912Z,94848.00
2023-05-22T00:02:13.015Z,94846.00
2023-05-22T00:03:13.042Z,94846.00
2023-05-22T00:04:13.047Z,94842.00
2023-05-22T00:05:13.155Z,94838.00
2023-05-22T00:06:13.150Z,94846.00
2023-05-22T00:07:13.159Z,94848.00
2023-05-22T00:08:13.206Z,94850.00
2023-05-22T00:09:13.229Z,94850.00
2023-05-22T00:10:13.367Z,94846.00
2023-05-22T00:11:13.319Z,94844.00
2023-05-22T00:12:13.406Z,94844.00
2023-05-22T00:13:13.426Z,94844.00
2023-05-22T00:14:13.573Z,94844.00
2023-05-22T00:15:13.527Z,94844.00
2023-05-22T00:16:13.528Z,94842.00
2023-05-22T00:17:13.793Z,94834.00
2023-05-22T00:18:13.669Z,94831.00
2023-05-22T00:19:13.882Z,94831.00
2023-05-22T00:20:13.741Z,94834.00
2023-05-22T00:21:13.758Z,94838.00
2023-05-22T00:22:13.846Z,94838.00
2023-05-22T00:23:15.541Z,94844.00
2023-05-22T00:24:13.948Z,94842.00
2023-05-22T00:25:13.915Z,94838.00
2023-05-22T00:26:14.001Z,94836.00
2023-05-22T00:27:14.010Z,94833.00
2023-05-22T00:28:14.078Z,94833.00
2023-05-22T00:29:14.135Z,94836.00
2023-05-22T00:30:14.197Z,94838.00
2023-05-22T00:31:14.220Z,94838.00
2023-05-22T00:32:14.274Z,94842.00
2023-05-22T00:33:14.336Z,94842.00
2023-05-22T00:34:14.427Z,94842.00
2023-05-22T00:35:14.411Z,94840.00
2023-05-22T00:36:14.440Z,94840.00
2023-05-22T00:37:14.479Z,94840.00
2023-05-22T00:38:14.538Z,94842.00
2023-05-22T00:39:14.617Z,94844.00
2023-05-22T00:40:14.647Z,94844.00
2023-05-22T00:41:14.681Z,94842.00
2023-05-22T00:42:14.760Z,94838.00
2023-05-22T00:43:14.758Z,94836.00
2023-05-22T00:44:14.841Z,94836.00
2023-05-22T00:45:14.904Z,94836.00
2023-05-22T00:46:14.941Z,94838.00
2023-05-22T00:47:14.979Z,94836.00
2023-05-22T00:48:15.017Z,94840.00
2023-05-22T00:49:15.048Z,94840.00
2023-05-22T00:50:15.101Z,94838.00
2023-05-22T00:51:15.160Z,94836.00
2023-05-22T00:52:15.218Z,94836.00
2023-05-22T00:53:15.238Z,94838.00
2023-05-22T00:54:15.270Z,94838.00
2023-05-22T00:55:15.287Z,94840.00
2023-05-22T00:56:15.373Z,94838.00
2023-05-22T00:57:15.389Z,94842.00
2023-05-22T00:58:15.445Z,94842.00
2023-05-22T00:59:15.487Z,94842.00
2023-05-22T01:00:15.520Z,94840.00
2023-05-22T01:01:15.623Z,94840.00
2023-05-22T01:02:15.635Z,94842.00
2023-05-22T01:03:15.709Z,94842.00
2023-05-22T01:04:15.829Z,94842.00
2023-05-22T01:05:15.678Z,94842.00
2023-05-22T01:06:15.731Z,94844.00
2023-05-22T01:07:15.760Z,94844.00
2023-05-22T01:08:15.803Z,94844.00
2023-05-22T01:09:15.854Z,94844.00
2023-05-22T01:10:15.864Z,94846.00
2023-05-22T01:11:15.918Z,94852.00
2023-05-22T01:12:15.958Z,94848.00
2023-05-22T01:13:15.981Z,94848.00
2023-05-22T01:14:16.009Z,94848.00
2023-05-22T01:15:16.049Z,94844.00
2023-05-22T01:16:16.117Z,94846.00
2023-05-22T01:17:16.104Z,94844.00
2023-05-22T01:18:16.172Z,94844.00
2023-05-22T01:19:16.279Z,94846.00
2023-05-22T01:20:16.148Z,94844.00
2023-05-22T01:21:16.177Z,94850.00
2023-05-22T01:22:16.210Z,94850.00
2023-05-22T01:23:16.332Z,94850.00
2023-05-22T01:24:16.315Z,94850.00
2023-05-22T01:25:16.269Z,94846.00
2023-05-22T01:26:16.263Z,94848.00
2023-05-22T01:27:16.285Z,94852.00
2023-05-22T01:28:16.270Z,94850.00
2023-05-22T01:29:16.298Z,94852.00
2023-05-22T01:30:16.310Z,94848.00
2023-05-22T01:31:16.413Z,94850.00
2023-05-22T01:32:16.354Z,94850.00
2023-05-22T01:33:16.439Z,94850.00
2023-05-22T01:34:16.352Z,94850.00
2023-05-22T01:35:16.334Z,94852.00
2023-05-22T01:36:16.325Z,94850.00
2023-05-22T01:37:16.326Z,94852.00
2023-05-22T01:38:16.331Z,94854.00
2023-05-22T01:39:16.336Z,94858.00
2023-05-22T01:40:16.312Z,94858.00
2023-05-22T01:41:16.295Z,94860.00
2023-05-22T01:42:16.298Z,94860.00
2023-05-22T01:43:16.327Z,94862.00
2023-05-22T01:44:16.317Z,94862.00
2023-05-22T01:45:16.288Z,94862.00
2023-05-22T01:46:16.299Z,94858.00
2023-05-22T01:47:16.265Z,94860.00
2023-05-22T01:48:16.313Z,94864.00
2023-05-22T01:49:16.282Z,94864.00
2023-05-22T01:50:16.317Z,94864.00
2023-05-22T01:51:16.294Z,94866.00
2023-05-22T01:52:16.330Z,94866.00
2023-05-22T01:53:16.409Z,94872.00
2023-05-22T01:54:16.411Z,94872.00
2023-05-22T01:55:16.452Z,94872.00
2023-05-22T01:56:16.498Z,94872.00
2023-05-22T01:57:16.532Z,94872.00
2023-05-22T01:58:16.608Z,94874.00
2023-05-22T01:59:16.610Z,94874.00
2023-05-22T02:00:16.646Z,94870.00
2023-05-22T02:01:16.735Z,94870.00
2023-05-22T02:02:16.758Z,94872.00
2023-05-22T02:03:16.861Z,94874.00
2023-05-22T02:04:16.801Z,94876.00
2023-05-22T02:05:16.862Z,94876.00
2023-05-22T02:06:16.912Z,94872.00
2023-05-22T02:07:16.966Z,94870.00
2023-05-22T02:08:16.981Z,94872.00
2023-05-22T02:09:17.053Z,94876.00
2023-05-22T02:10:17.132Z,94878.00
2023-05-22T02:11:17.197Z,94881.00
2023-05-22T02:12:17.198Z,94878.00
2023-05-22T02:13:17.218Z,94880.00
2023-05-22T02:14:17.330Z,94880.00
2023-05-22T02:15:17.352Z,94878.00
2023-05-22T02:16:17.433Z,94876.00
2023-05-22T02:17:17.466Z,94876.00
2023-05-22T02:18:17.501Z,94874.00
2023-05-22T02:19:17.654Z,94874.00
2023-05-22T02:20:17.627Z,94872.00
2023-05-22T02:21:17.699Z,94874.00
2023-05-22T02:22:17.791Z,94872.00
2023-05-22T02:23:17.848Z,94868.00
2023-05-22T02:24:17.901Z,94872.00
2023-05-22T02:25:17.999Z,94868.00
2023-05-22T02:26:18.054Z,94868.00
2023-05-22T02:27:18.077Z,94872.00
2023-05-22T02:28:18.167Z,94868.00
2023-05-22T02:29:18.243Z,94866.00
2023-05-22T02:30:18.268Z,94864.00
2023-05-22T02:31:18.410Z,94862.00
2023-05-22T02:32:18.386Z,94862.00
2023-05-22T02:33:18.461Z,94860.00
2023-05-22T02:34:18.514Z,94864.00
2023-05-22T02:35:18.584Z,94866.00
2023-05-22T02:36:18.648Z,94868.00
2023-05-22T02:37:18.697Z,94868.00
2023-05-22T02:38:18.766Z,94868.00
2023-05-22T02:39:18.840Z,94872.00
2023-05-22T02:40:18.896Z,94874.00
2023-05-22T02:41:18.942Z,94876.00
2023-05-22T02:42:19.025Z,94876.00
2023-05-22T02:43:19.073Z,94874.00
2023-05-22T02:44:19.137Z,94874.00
2023-05-22T02:45:19.166Z,94878.00
2023-05-22T02:46:19.289Z,94876.00
2023-05-22T02:47:19.290Z,94876.00
2023-05-22T02:48:19.374Z,94876.00
2023-05-22T02:49:19.423Z,94874.00
2023-05-22T02:50:19.507Z,94878.00
2023-05-22T02:51:19.530Z,94876.00
2023-05-22T02:52:19.610Z,94876.00
2023-05-22T02:53:20.202Z,94876.00
2023-05-22T02:54:19.722Z,94876.00
2023-05-22T02:55:19.774Z,94876.00
2023-05-22T02:56:19.867Z,94872.00
2023-05-22T02:57:19.927Z,94878.00
2023-05-22T02:58:19.956Z,94880.00
2023-05-22T02:59:20.058Z,94880.00
2023-05-22T03:00:20.078Z,94878.00
2023-05-22T03:01:20.152Z,94876.00
2023-05-22T03:02:20.193Z,94880.00
2023-05-22T03:03:20.477Z,94878.00
2023-05-22T03:04:20.327Z,94880.00
2023-05-22T03:05:20.409Z,94885.00
2023-05-22T03:06:20.444Z,94885.00
2023-05-22T03:07:20.505Z,94883.00
2023-05-22T03:08:20.570Z,94885.00
2023-05-22T03:09:20.638Z,94881.00
2023-05-22T03:10:20.719Z,94885.00
2023-05-22T03:11:20.780Z,94885.00
2023-05-22T03:12:20.820Z,94887.00
2023-05-22T03:13:20.897Z,94887.00
2023-05-22T03:14:20.935Z,94895.00
2023-05-22T03:15:20.999Z,94897.00
2023-05-22T03:16:21.121Z,94897.00
2023-05-22T03:17:21.100Z,94897.00
2023-05-22T03:18:21.178Z,94887.00
2023-05-22T03:19:21.280Z,94885.00
2023-05-22T03:20:21.313Z,94885.00
2023-05-22T03:21:21.367Z,94885.00
2023-05-22T03:22:21.452Z,94883.00
2023-05-22T03:23:21.491Z,94883.00
2023-05-22T03:24:21.583Z,94895.00
2023-05-22T03:25:21.619Z,94887.00
2023-05-22T03:26:21.698Z,94880.00
2023-05-22T03:27:21.758Z,94883.00
2023-05-22T03:28:21.788Z,94883.00
2023-05-22T03:29:21.919Z,94880.00
2023-05-22T03:30:21.966Z,94883.00
2023-05-22T03:31:21.993Z,94885.00
2023-05-22T03:32:22.080Z,94883.00
2023-05-22T03:33:22.142Z,94883.00
2023-05-22T03:34:22.187Z,94883.00
2023-05-22T03:35:22.252Z,94885.00
2023-05-22T03:36:22.295Z,94880.00
2023-05-22T03:37:22.367Z,94881.00
2023-05-22T03:38:22.438Z,94878.00
2023-05-22T03:39:22.493Z,94880.00
2023-05-22T03:40:22.584Z,94878.00
2023-05-22T03:41:22.644Z,94878.00
2023-05-22T03:42:22.675Z,94876.00
2023-05-22T03:43:22.777Z,94876.00
2023-05-22T03:44:22.824Z,94870.00
2023-05-22T03:45:22.892Z,94872.00
2023-05-22T03:46:23.041Z,94868.00
2023-05-22T03:47:23.016Z,94870.00
2023-05-22T03:48:23.068Z,94870.00
2023-05-22T03:49:23.110Z,94872.00
2023-05-22T03:50:23.175Z,94870.00
2023-05-22T03:51:23.178Z,94870.00
2023-05-22T03:52:23.286Z,94874.00
2023-05-22T03:53:23.316Z,94876.00
2023-05-22T03:54:23.360Z,94878.00
2023-05-22T03:55:24.264Z,94881.00
2023-05-22T03:56:23.453Z,94878.00
2023-05-22T03:57:23.551Z,94880.00
2023-05-22T03:58:23.554Z,94881.00
2023-05-22T03:59:23.601Z,94881.00
2023-05-22T04:00:25.706Z,94883.00
2023-05-22T04:01:23.693Z,94883.00
2023-05-22T04:02:23.796Z,94885.00
2023-05-22T04:03:23.716Z,94885.00
2023-05-22T04:04:23.649Z,94887.00
2023-05-22T04:05:23.724Z,94885.00
2023-05-22T04:06:23.596Z,94885.00
2023-05-22T04:07:23.607Z,94885.00
2023-05-22T04:08:23.640Z,94883.00
2023-05-22T04:09:23.609Z,94881.00
2023-05-22T04:10:23.614Z,94885.00
2023-05-22T04:11:23.581Z,94883.00
2023-05-22T04:12:23.583Z,94885.00
2023-05-22T04:13:23.570Z,94885.00
2023-05-22T04:14:23.568Z,94883.00
2023-05-22T04:15:23.599Z,94883.00
2023-05-22T04:16:23.619Z,94881.00
2023-05-22T04:17:23.569Z,94881.00
2023-05-22T04:18:23.536Z,94883.00
2023-05-22T04:19:23.604Z,94883.00
2023-05-22T04:20:23.557Z,94883.00
2023-05-22T04:21:23.526Z,94885.00
2023-05-22T04:22:23.484Z,94887.00
2023-05-22T04:23:23.510Z,94887.00
2023-05-22T04:24:23.501Z,94885.00
2023-05-22T04:25:23.495Z,94887.00
2023-05-22T04:26:23.511Z,94897.00
2023-05-22T04:27:23.479Z,94897.00
2023-05-22T04:28:23.484Z,94901.00
2023-05-22T04:29:23.466Z,94901.00
2023-05-22T04:30:23.460Z,94903.00
2023-05-22T04:31:23.530Z,94903.00
2023-05-22T04:32:23.467Z,94899.00
2023-05-22T04:33:23.438Z,94903.00
2023-05-22T04:34:23.428Z,94905.00
2023-05-22T04:35:23.453Z,94905.00
2023-05-22T04:36:23.420Z,94905.00
2023-05-22T04:37:23.384Z,94907.00
2023-05-22T04:38:23.400Z,94907.00
2023-05-22T04:39:23.402Z,94909.00
2023-05-22T04:40:23.385Z,94909.00
2023-05-22T04:41:23.357Z,94909.00
2023-05-22T04:42:23.378Z,94909.00
2023-05-22T04:43:23.382Z,94907.00
2023-05-22T04:44:23.370Z,94911.00
2023-05-22T04:45:23.341Z,94913.00
2023-05-22T04:46:23.362Z,94915.00
2023-05-22T04:47:23.421Z,94917.00
2023-05-22T04:48:23.374Z,94913.00
2023-05-22T04:49:23.337Z,94913.00
2023-05-22T04:50:23.344Z,94913.00
2023-05-22T04:51:23.317Z,94911.00
2023-05-22T04:52:23.411Z,94913.00
2023-05-22T04:53:23.354Z,94911.00
2023-05-22T04:54:23.368Z,94913.00
2023-05-22T04:55:23.286Z,94913.00
2023-05-22T04:56:35.449Z,94915.00
2023-05-22T04:57:24.328Z,94915.00
2023-05-22T04:58:23.297Z,94915.00
2023-05-22T04:59:23.288Z,94917.00
2023-05-22T05:00:23.285Z,94913.00
2023-05-22T05:01:32.890Z,94915.00
2023-05-22T05:02:23.263Z,94913.00
2023-05-22T05:03:23.311Z,94913.00
2023-05-22T05:04:23.309Z,94913.00
2023-05-22T05:05:23.256Z,94915.00
2023-05-22T05:06:23.256Z,94915.00
2023-05-22T05:07:23.229Z,94915.00
2023-05-22T05:08:23.267Z,94915.00
2023-05-22T05:09:23.222Z,94913.00
2023-05-22T05:10:23.230Z,94915.00
2023-05-22T05:11:23.196Z,94915.00
2023-05-22T05:12:23.211Z,94913.00
2023-05-22T05:13:23.185Z,94913.00
2023-05-22T05:14:23.185Z,94913.00
2023-05-22T05:15:23.194Z,94913.00
2023-05-22T05:16:23.211Z,94915.00
2023-05-22T05:17:23.176Z,94915.00
2023-05-22T05:18:23.128Z,94919.00
2023-05-22T05:19:23.242Z,94915.00
2023-05-22T05:20:23.161Z,94917.00
2023-05-22T05:21:23.141Z,94917.00
2023-05-22T05:22:23.181Z,94919.00
2023-05-22T05:23:23.137Z,94921.00
2023-05-22T05:24:23.141Z,94921.00
2023-05-22T05:25:23.094Z,94921.00
2023-05-22T05:26:23.078Z,94925.00
2023-05-22T05:27:23.109Z,94921.00
2023-05-22T05:28:23.101Z,94921.00
2023-05-22T05:29:23.111Z,94921.00
2023-05-22T05:30:23.080Z,94915.00
2023-05-22T05:31:23.071Z,94917.00
2023-05-22T05:32:23.232Z,94913.00
2023-05-22T05:33:23.054Z,94917.00
2023-05-22T05:34:23.311Z,94915.00
2023-05-22T05:35:23.013Z,94917.00
2023-05-22T05:36:23.011Z,94917.00
2023-05-22T05:37:23.033Z,94915.00
2023-05-22T05:38:23.053Z,94915.00
2023-05-22T05:39:23.472Z,94915.00
2023-05-22T05:40:23.042Z,94915.00
2023-05-22T05:41:23.070Z,94915.00
2023-05-22T05:42:22.989Z,94917.00
2023-05-22T05:43:23.021Z,94919.00
2023-05-22T05:44:23.058Z,94915.00
2023-05-22T05:45:22.974Z,94915.00
2023-05-22T05:46:30.661Z,94911.00
2023-05-22T05:47:22.974Z,94911.00
2023-05-22T05:48:22.965Z,94909.00
2023-05-22T05:49:23.326Z,94909.00
2023-05-22T05:50:22.936Z,94911.00
2023-05-22T05:51:22.929Z,94907.00
2023-05-22T05:52:22.947Z,94909.00
2023-05-22T05:53:22.946Z,94911.00
2023-05-22T05:54:23.410Z,94911.00
2023-05-22T05:55:22.942Z,94909.00
2023-05-22T05:56:22.948Z,94909.00
2023-05-22T05:57:22.904Z,94909.00
2023-05-22T05:58:23.898Z,94913.00
2023-05-22T05:59:22.916Z,94913.00
2023-05-22T06:00:22.970Z,94913.00
2023-05-22T06:01:22.865Z,94915.00
2023-05-22T06:02:22.959Z,94915.00
2023-05-22T06:03:22.975Z,94923.00
2023-05-22T06:04:22.840Z,94921.00
2023-05-22T06:05:22.934Z,94923.00
2023-05-22T06:06:22.872Z,94921.00
2023-05-22T06:07:22.874Z,94921.00
2023-05-22T06:08:22.877Z,94923.00
2023-05-22T06:09:22.900Z,94921.00
2023-05-22T06:10:22.894Z,94919.00
2023-05-22T06:11:22.903Z,94921.00
2023-05-22T06:12:22.950Z,94919.00
2023-05-22T06:13:22.981Z,94921.00
2023-05-22T06:14:22.956Z,94925.00
2023-05-22T06:15:22.925Z,94921.00
2023-05-22T06:16:23.018Z,94921.00
2023-05-22T06:17:22.965Z,94919.00
2023-05-22T06:18:22.993Z,94921.00
2023-05-22T06:19:23.408Z,94919.00
2023-05-22T06:20:22.978Z,94921.00
2023-05-22T06:21:22.987Z,94921.00
2023-05-22T06:22:23.027Z,94921.00
2023-05-22T06:23:23.040Z,94919.00
2023-05-22T06:24:23.382Z,94919.00
2023-05-22T06:25:23.088Z,94917.00
2023-05-22T06:26:23.053Z,94915.00
2023-05-22T06:27:23.183Z,94913.00
2023-05-22T06:28:23.091Z,94915.00
2023-05-22T06:29:23.372Z,94917.00
2023-05-22T06:30:38.982Z,94911.00
2023-05-22T06:31:24.100Z,94913.00
2023-05-22T06:32:23.217Z,94913.00
2023-05-22T06:33:23.264Z,94915.00
2023-05-22T06:34:23.399Z,94915.00
2023-05-22T06:35:23.083Z,94909.00
2023-05-22T06:36:23.128Z,94911.00
2023-05-22T06:37:23.040Z,94915.00
2023-05-22T06:38:23.014Z,94915.00
2023-05-22T06:39:23.071Z,94911.00
2023-05-22T06:40:23.018Z,94911.00
2023-05-22T06:41:23.031Z,94907.00
2023-05-22T06:42:22.986Z,94909.00
2023-05-22T06:43:23.236Z,94913.00
2023-05-22T06:44:23.485Z,94907.00
2023-05-22T06:45:23.177Z,94909.00
2023-05-22T06:46:25.109Z,94909.00
2023-05-22T06:47:23.135Z,94907.00
2023-05-22T06:48:23.179Z,94909.00
2023-05-22T06:49:23.395Z,94905.00
2023-05-22T06:50:22.913Z,94905.00
2023-05-22T06:51:22.992Z,94903.00
2023-05-22T06:52:22.960Z,94899.00
2023-05-22T06:53:23.027Z,94901.00
2023-05-22T06:54:22.929Z,94901.00
2023-05-22T06:55:23.007Z,94901.00
2023-05-22T06:56:22.945Z,94899.00
2023-05-22T06:57:22.895Z,94897.00
2023-05-22T06:58:22.919Z,94895.00
2023-05-22T06:59:22.978Z,94897.00
2023-05-22T07:00:22.895Z,94897.00
2023-05-22T07:01:23.092Z,94897.00
2023-05-22T07:02:22.872Z,94897.00
2023-05-22T07:03:22.878Z,94895.00
2023-05-22T07:04:23.005Z,94887.00
2023-05-22T07:05:22.987Z,94885.00
2023-05-22T07:06:22.915Z,94887.00
2023-05-22T07:07:22.925Z,94885.00
2023-05-22T07:08:22.858Z,94883.00
2023-05-22T07:09:22.858Z,94880.00
2023-05-22T07:10:22.880Z,94880.00
2023-05-22T07:11:22.824Z,94878.00
2023-05-22T07:12:22.787Z,94878.00
2023-05-22T07:13:22.844Z,94876.00
2023-05-22T07:14:22.873Z,94878.00
2023-05-22T07:15:22.893Z,94880.00
2023-05-22T07:16:22.856Z,94880.00
2023-05-22T07:17:22.893Z,94876.00
2023-05-22T07:18:22.776Z,94876.00
2023-05-22T07:19:22.835Z,94876.00
2023-05-22T07:20:22.757Z,94876.00
2023-05-22T07:21:22.750Z,94872.00
2023-05-22T07:22:22.722Z,94876.00
2023-05-22T07:23:24.378Z,94874.00
2023-05-22T07:24:22.857Z,94870.00
2023-05-22T07:25:22.706Z,94874.00
2023-05-22T07:26:22.725Z,94870.00
2023-05-22T07:27:22.742Z,94874.00
2023-05-22T07:28:22.681Z,94870.00
2023-05-22T07:29:23.385Z,94866.00
2023-05-22T07:30:22.685Z,94868.00
2023-05-22T07:31:22.735Z,94866.00
2023-05-22T07:32:22.798Z,94866.00
2023-05-22T07:33:22.688Z,94864.00
2023-05-22T07:34:22.620Z,94868.00
2023-05-22T07:35:22.680Z,94866.00
2023-05-22T07:36:22.613Z,94866.00
2023-05-22T07:37:22.613Z,94866.00
2023-05-22T07:38:22.596Z,94864.00
2023-05-22T07:39:22.617Z,94866.00
2023-05-22T07:40:24.349Z,94862.00
2023-05-22T07:41:22.646Z,94860.00
2023-05-22T07:42:22.637Z,94854.00
2023-05-22T07:43:22.694Z,94850.00
2023-05-22T07:44:22.693Z,94854.00
2023-05-22T07:45:22.915Z,94858.00
2023-05-22T07:46:22.764Z,94854.00
2023-05-22T07:47:22.743Z,94850.00
2023-05-22T07:48:22.708Z,94848.00
2023-05-22T07:49:22.716Z,94848.00
2023-05-22T07:50:22.962Z,94848.00
2023-05-22T07:51:22.733Z,94846.00
2023-05-22T07:52:22.798Z,94844.00
2023-05-22T07:53:22.866Z,94844.00
2023-05-22T07:54:22.892Z,94842.00
2023-05-22T07:55:22.860Z,94844.00
2023-05-22T07:56:22.863Z,94842.00
2023-05-22T07:57:22.878Z,94840.00
2023-05-22T07:58:22.894Z,94838.00
2023-05-22T07:59:22.878Z,94836.00
2023-05-22T08:00:22.915Z,94838.00
2023-05-22T08:01:22.910Z,94840.00
2023-05-22T08:02:23.020Z,94836.00
2023-05-22T08:03:24.149Z,94833.00
2023-05-22T08:04:23.059Z,94833.00
2023-05-22T08:05:23.483Z,94834.00
2023-05-22T08:06:22.929Z,94829.00
2023-05-22T08:07:23.013Z,94827.00
2023-05-22T08:08:22.964Z,94827.00
2023-05-22T08:09:22.962Z,94825.00
2023-05-22T08:10:23.431Z,94823.00
2023-05-22T08:11:22.983Z,94825.00
2023-05-22T08:12:23.033Z,94821.00
2023-05-22T08:13:23.114Z,94825.00
2023-05-22T08:14:23.161Z,94823.00
2023-05-22T08:15:23.264Z,94821.00
2023-05-22T08:16:23.318Z,94817.00
2023-05-22T08:17:23.314Z,94815.00
2023-05-22T08:18:23.302Z,94815.00
2023-05-22T08:19:23.549Z,94817.00
2023-05-22T08:20:23.430Z,94815.00
2023-05-22T08:21:23.532Z,94813.00
2023-05-22T08:22:23.518Z,94813.00
2023-05-22T08:23:23.593Z,94815.00
2023-05-22T08:24:23.548Z,94815.00
2023-05-22T08:25:23.562Z,94811.00
2023-05-22T08:26:23.601Z,94811.00
2023-05-22T08:27:23.608Z,94809.00
2023-05-22T08:28:23.658Z,94809.00
2023-05-22T08:29:23.625Z,94811.00
2023-05-22T08:30:23.857Z,94809.00
2023-05-22T08:31:23.948Z,94809.00
2023-05-22T08:32:23.780Z,94807.00
2023-05-22T08:33:23.692Z,94805.00
2023-05-22T08:34:23.717Z,94807.00
2023-05-22T08:35:23.736Z,94805.00
2023-05-22T08:36:23.753Z,94805.00
2023-05-22T08:37:23.820Z,94805.00
2023-05-22T08:38:23.830Z,94805.00
2023-05-22T08:39:23.871Z,94801.00
2023-05-22T08:40:23.972Z,94801.00
2023-05-22T08:41:24.468Z,94799.00
2023-05-22T08:42:24.030Z,94803.00
2023-05-22T08:43:23.982Z,94801.00
2023-05-22T08:44:23.990Z,94797.00
2023-05-22T08:45:24.022Z,94795.00
2023-05-22T08:46:24.463Z,94793.00
2023-05-22T08:47:24.058Z,94793.00
2023-05-22T08:48:24.021Z,94791.00
2023-05-22T08:49:24.379Z,94791.00
2023-05-22T08:50:24.043Z,94785.00
2023-05-22T08:51:24.083Z,94785.00
2023-05-22T08:52:24.133Z,94783.00
2023-05-22T08:53:24.105Z,94779.00
2023-05-22T08:54:24.153Z,94781.00
2023-05-22T08:55:24.120Z,94779.00
2023-05-22T08:56:25.176Z,94778.00
2023-05-22T08:57:24.277Z,94778.00
2023-05-22T08:58:24.272Z,94774.00
2023-05-22T08:59:24.295Z,94776.00
2023-05-22T09:00:24.345Z,94772.00
2023-05-22T09:01:24.460Z,94772.00
2023-05-22T09:02:24.369Z,94772.00
2023-05-22T09:03:24.478Z,94768.00
2023-05-22T09:04:24.460Z,94770.00
2023-05-22T09:05:24.531Z,94770.00
2023-05-22T09:06:24.948Z,94766.00
2023-05-22T09:07:24.835Z,94768.00
2023-05-22T09:08:24.712Z,94768.00
2023-05-22T09:09:25.410Z,94766.00
2023-05-22T09:10:24.814Z,94762.00
2023-05-22T09:11:24.931Z,94762.00
2023-05-22T09:12:24.985Z,94762.00
2023-05-22T09:13:25.034Z,94758.00
2023-05-22T09:14:25.117Z,94758.00
2023-05-22T09:15:25.108Z,94756.00
2023-05-22T09:16:25.294Z,94754.00
2023-05-22T09:17:25.276Z,94752.00
2023-05-22T09:18:25.306Z,94748.00
2023-05-22T09:19:25.425Z,94750.00
2023-05-22T09:20:25.376Z,94748.00
2023-05-22T09:21:30.302Z,94748.00
2023-05-22T09:22:26.448Z,94748.00
2023-05-22T09:23:25.417Z,94748.00
2023-05-22T09:24:25.439Z,94746.00
2023-05-22T09:25:25.434Z,94746.00
2023-05-22T09:26:25.426Z,94746.00
2023-05-22T09:27:25.403Z,94744.00
2023-05-22T09:28:25.407Z,94744.00
2023-05-22T09:29:25.396Z,94748.00
2023-05-22T09:30:25.394Z,94746.00
2023-05-22T09:31:25.439Z,94746.00
2023-05-22T09:32:25.461Z,94744.00
2023-05-22T09:33:25.405Z,94746.00
2023-05-22T09:34:25.445Z,94742.00
2023-05-22T09:35:25.502Z,94738.00
2023-05-22T09:36:25.491Z,94738.00
2023-05-22T09:37:25.574Z,94738.00
2023-05-22T09:38:25.581Z,94736.00
2023-05-22T09:39:25.791Z,94738.00
2023-05-22T09:40:25.618Z,94736.00
2023-05-22T09:41:25.971Z,94736.00
2023-05-22T09:42:25.722Z,94734.00
2023-05-22T09:43:25.856Z,94732.00
2023-05-22T09:44:25.839Z,94732.00
2023-05-22T09:45:25.899Z,94732.00
2023-05-22T09:46:26.062Z,94727.00
2023-05-22T09:47:26.082Z,94727.00
2023-05-22T09:48:26.095Z,94727.00
2023-05-22T09:49:26.174Z,94723.00
2023-05-22T09:50:26.204Z,94727.00
2023-05-22T09:51:26.595Z,94723.00
2023-05-22T09:52:26.328Z,94721.00
2023-05-22T09:53:26.407Z,94721.00
2023-05-22T09:54:26.417Z,94725.00
2023-05-22T09:55:26.477Z,94719.00
2023-05-22T09:56:37.790Z,94717.00
2023-05-22T09:57:27.492Z,94719.00
2023-05-22T09:58:26.499Z,94719.00
2023-05-22T09:59:26.481Z,94717.00
2023-05-22T10:00:26.503Z,94719.00
2023-05-22T10:01:26.581Z,94717.00
2023-05-22T10:02:26.641Z,94715.00
2023-05-22T10:03:26.567Z,94717.00
2023-05-22T10:04:26.636Z,94715.00
2023-05-22T10:05:26.691Z,94713.00
2023-05-22T10:06:26.645Z,94711.00
2023-05-22T10:07:26.717Z,94713.00
2023-05-22T10:08:26.728Z,94711.00
2023-05-22T10:09:26.743Z,94709.00
2023-05-22T10:10:26.786Z,94707.00
2023-05-22T10:11:26.819Z,94705.00
2023-05-22T10:12:26.842Z,94705.00
2023-05-22T10:13:26.847Z,94705.00
2023-05-22T10:14:27.808Z,94707.00
2023-05-22T10:15:26.910Z,94703.00
2023-05-22T10:16:27.023Z,94701.00
2023-05-22T10:17:26.958Z,94699.00
2023-05-22T10:18:26.981Z,94701.00
2023-05-22T10:19:27.305Z,94695.00
2023-05-22T10:20:27.006Z,94695.00
2023-05-22T10:21:27.011Z,94691.00
2023-05-22T10:22:27.063Z,94693.00
2023-05-22T10:23:27.049Z,94691.00
2023-05-22T10:24:27.059Z,94691.00
2023-05-22T10:25:27.058Z,94689.00
2023-05-22T10:26:27.503Z,94689.00
2023-05-22T10:27:27.227Z,94687.00
2023-05-22T10:28:27.069Z,94685.00
2023-05-22T10:29:27.105Z,94687.00
2023-05-22T10:30:27.125Z,94684.00
2023-05-22T10:31:27.078Z,94684.00
2023-05-22T10:32:27.138Z,94684.00
2023-05-22T10:33:27.138Z,94685.00
2023-05-22T10:34:27.100Z,94685.00
2023-05-22T10:35:27.112Z,94682.00
2023-05-22T10:36:27.117Z,94682.00
2023-05-22T10:37:27.264Z,94678.00
2023-05-22T10:38:27.147Z,94682.00
2023-05-22T10:39:27.071Z,94680.00
2023-05-22T10:40:27.094Z,94678.00
2023-05-22T10:41:28.023Z,94680.00
2023-05-22T10:42:27.528Z,94678.00
2023-05-22T10:43:27.216Z,94676.00
2023-05-22T10:44:27.178Z,94674.00
2023-05-22T10:45:27.224Z,94670.00
2023-05-22T10:46:27.242Z,94670.00
2023-05-22T10:47:27.541Z,94670.00
2023-05-22T10:48:27.246Z,94666.00
2023-05-22T10:49:27.249Z,94666.00
2023-05-22T10:50:27.258Z,94660.00
2023-05-22T10:51:27.316Z,94666.00
2023-05-22T10:52:27.302Z,94662.00
2023-05-22T10:53:27.350Z,94656.00
2023-05-22T10:54:27.388Z,94658.00
2023-05-22T10:55:27.390Z,94656.00
2023-05-22T10:56:27.464Z,94654.00
2023-05-22T10:57:27.519Z,94654.00
2023-05-22T10:58:27.483Z,94654.00
2023-05-22T10:59:27.580Z,94650.00
2023-05-22T11:00:27.528Z,94648.00
2023-05-22T11:01:27.621Z,94648.00
2023-05-22T11:02:28.118Z,94650.00
2023-05-22T11:03:27.704Z,94646.00
2023-05-22T11:04:27.725Z,94646.00
2023-05-22T11:05:27.670Z,94648.00
2023-05-22T11:06:27.676Z,94648.00
2023-05-22T11:07:27.757Z,94646.00
2023-05-22T11:08:27.754Z,94642.00
2023-05-22T11:09:27.768Z,94638.00
2023-05-22T11:10:27.832Z,94638.00
2023-05-22T11:11:27.881Z,94638.00
2023-05-22T11:12:28.044Z,94629.00
2023-05-22T11:13:29.323Z,94631.00
2023-05-22T11:14:27.992Z,94640.00
2023-05-22T11:15:28.060Z,94629.00
2023-05-22T11:16:28.013Z,94627.00
2023-05-22T11:17:28.563Z,94625.00
2023-05-22T11:18:28.082Z,94627.00
2023-05-22T11:19:28.114Z,94627.00
2023-05-22T11:20:28.150Z,94625.00
2023-05-22T11:21:28.117Z,94623.00
2023-05-22T11:22:28.549Z,94617.00
2023-05-22T11:23:28.191Z,94617.00
2023-05-22T11:24:28.235Z,94617.00
2023-05-22T11:25:28.265Z,94615.00
2023-05-22T11:26:28.328Z,94613.00
2023-05-22T11:27:28.528Z,94607.00
2023-05-22T11:28:28.384Z,94613.00
2023-05-22T11:29:28.406Z,94611.00
2023-05-22T11:30:28.429Z,94613.00
2023-05-22T11:31:28.647Z,94613.00
2023-05-22T11:32:29.012Z,94609.00
2023-05-22T11:33:28.551Z,94613.00
2023-05-22T11:34:28.688Z,94613.00
2023-05-22T11:35:28.681Z,94609.00
2023-05-22T11:36:28.650Z,94611.00
2023-05-22T11:37:28.681Z,94603.00
2023-05-22T11:38:29.007Z,94605.00
2023-05-22T11:39:28.737Z,94605.00
2023-05-22T11:40:28.757Z,94603.00
2023-05-22T11:41:29.592Z,94601.00
2023-05-22T11:42:28.785Z,94603.00
2023-05-22T11:43:28.837Z,94601.00
2023-05-22T11:44:28.904Z,94595.00